sensor_id;sensor_type;location;lat;lon;timestamp;pressure;altitude;pressure_sealevel;temperature;humidity
8523;BME280;4299;42.202;24.736;2022-08-01T00:01:29;99240.50;;;22.22;100.00
8523;BME280;4299;42.202;24.736;2022-08-01T00:03:56;99238.31;;;22.18;100.00
8523;BME280;4299;42.202;24.736;2022-08-01T00:06:23;99238.00;;;22.21;100.00
8523;BME280;4299;42.202;24.736;2022-08-01T00:08:49;99231.22;;;22.17;100.00
8523;BME280;4299;42.202;24.736;2022-08-01T00:11:16;99231.22;;;22.17;100.00
8523;BME280;4299;42.202;24.736;2022-08-01T00:13:43;99229.53;;;22.16;100.00
8523;BME280;4299;42.202;24.736;2022-08-01T00:16:10;99233.94;;;22.17;100.00
8523;BME280;4299;42.202;24.736;2022-08-01T00:18:38;99236.97;;;22.22;100.00
8523;BME280;4299;42.202;24.736;2022-08-01T00:21:04;99225.13;;;22.14;100.00
8523;BME280;4299;42.202;24.736;2022-08-01T00:23:31;99231.56;;;22.13;100.00
8523;BME280;4299;42.202;24.736;2022-08-01T00:25:58;99233.94;;;22.25;100.00
8523;BME280;4299;42.202;24.736;2022-08-01T00:28:25;99236.00;;;22.39;99.15
8523;BME280;4299;42.202;24.736;2022-08-01T00:30:51;99227.56;;;22.50;97.42
8523;BME280;4299;42.202;24.736;2022-08-01T00:33:18;99231.63;;;22.62;95.39
8523;BME280;4299;42.202;24.736;2022-08-01T00:35:46;99231.66;;;22.78;93.63
8523;BME280;4299;42.202;24.736;2022-08-01T00:38:12;99232.66;;;22.94;92.53
8523;BME280;4299;42.202;24.736;2022-08-01T00:40:39;99229.41;;;23.06;90.96
8523;BME280;4299;42.202;24.736;2022-08-01T00:43:06;99232.59;;;23.10;90.87
8523;BME280;4299;42.202;24.736;2022-08-01T00:45:33;99239.38;;;23.06;90.70
8523;BME280;4299;42.202;24.736;2022-08-01T00:47:59;99237.69;;;23.05;90.23
8523;BME280;4299;42.202;24.736;2022-08-01T00:50:26;99236.69;;;22.98;90.21
8523;BME280;4299;42.202;24.736;2022-08-01T00:52:55;99237.03;;;22.95;90.71
8523;BME280;4299;42.202;24.736;2022-08-01T00:55:22;99232.28;;;22.88;90.85
8523;BME280;4299;42.202;24.736;2022-08-01T00:57:50;99242.47;;;22.78;91.32
8523;BME280;4299;42.202;24.736;2022-08-01T01:00:17;99237.69;;;22.72;91.45
8523;BME280;4299;42.202;24.736;2022-08-01T01:02:43;99232.09;;;22.66;92.06
8523;BME280;4299;42.202;24.736;2022-08-01T01:05:10;99238.03;;;22.53;92.67
8523;BME280;4299;42.202;24.736;2022-08-01T01:07:44;99240.88;;;22.51;93.07
8523;BME280;4299;42.202;24.736;2022-08-01T01:10:19;99233.97;;;22.41;93.19
8523;BME280;4299;42.202;24.736;2022-08-01T01:12:51;99235.66;;;22.34;94.22
8523;BME280;4299;42.202;24.736;2022-08-01T01:15:23;99235.28;;;22.29;94.12
8523;BME280;4299;42.202;24.736;2022-08-01T01:17:55;99239.34;;;22.25;94.88
8523;BME280;4299;42.202;24.736;2022-08-01T01:20:26;99240.34;;;22.16;95.08
8523;BME280;4299;42.202;24.736;2022-08-01T01:23:10;99239.00;;;22.11;94.71
8523;BME280;4299;42.202;24.736;2022-08-01T01:25:51;99244.00;;;22.06;94.74
8523;BME280;4299;42.202;24.736;2022-08-01T01:28:27;99239.31;;;22.08;94.80
8523;BME280;4299;42.202;24.736;2022-08-01T01:30:58;99243.69;;;22.01;95.37
8523;BME280;4299;42.202;24.736;2022-08-01T01:33:27;99236.09;;;21.97;95.57
8523;BME280;4299;42.202;24.736;2022-08-01T01:35:59;99244.97;;;21.89;96.05
8523;BME280;4299;42.202;24.736;2022-08-01T01:38:29;99248.13;;;21.85;96.70
8523;BME280;4299;42.202;24.736;2022-08-01T01:40:59;99248.28;;;21.75;96.82
8523;BME280;4299;42.202;24.736;2022-08-01T01:43:27;99247.59;;;21.73;97.11
8523;BME280;4299;42.202;24.736;2022-08-01T01:45:57;99249.44;;;21.72;97.46
8523;BME280;4299;42.202;24.736;2022-08-01T01:48:24;99250.94;;;21.67;97.51
8523;BME280;4299;42.202;24.736;2022-08-01T01:50:52;99244.50;;;21.60;97.47
8523;BME280;4299;42.202;24.736;2022-08-01T01:53:21;99235.41;;;21.61;97.85
8523;BME280;4299;42.202;24.736;2022-08-01T01:55:52;99234.38;;;21.54;98.06
8523;BME280;4299;42.202;24.736;2022-08-01T01:58:20;99242.78;;;21.51;98.46
8523;BME280;4299;42.202;24.736;2022-08-01T02:00:49;99241.25;;;21.48;98.69
8523;BME280;4299;42.202;24.736;2022-08-01T02:03:20;99242.75;;;21.43;99.08
8523;BME280;4299;42.202;24.736;2022-08-01T02:05:49;99239.69;;;21.38;99.10
8523;BME280;4299;42.202;24.736;2022-08-01T02:08:17;99238.00;;;21.36;98.86
8523;BME280;4299;42.202;24.736;2022-08-01T02:10:45;99243.38;;;21.36;98.84
8523;BME280;4299;42.202;24.736;2022-08-01T02:13:26;99244.34;;;21.27;99.09
8523;BME280;4299;42.202;24.736;2022-08-01T02:15:53;99248.38;;;21.23;99.11
8523;BME280;4299;42.202;24.736;2022-08-01T02:18:21;99247.84;;;21.20;99.60
8523;BME280;4299;42.202;24.736;2022-08-01T02:20:49;99249.63;;;21.11;99.71
8523;BME280;4299;42.202;24.736;2022-08-01T02:23:17;99245.19;;;21.02;100.00
8523;BME280;4299;42.202;24.736;2022-08-01T02:25:47;99242.09;;;20.97;100.00
8523;BME280;4299;42.202;24.736;2022-08-01T02:28:18;99241.03;;;20.90;100.00
8523;BME280;4299;42.202;24.736;2022-08-01T02:30:48;99240.59;;;20.77;100.00
8523;BME280;4299;42.202;24.736;2022-08-01T02:33:17;99236.13;;;20.68;100.00
8523;BME280;4299;42.202;24.736;2022-08-01T02:35:49;99242.78;;;20.55;100.00
8523;BME280;4299;42.202;24.736;2022-08-01T02:38:17;99233.56;;;20.40;100.00
8523;BME280;4299;42.202;24.736;2022-08-01T02:40:46;99240.13;;;20.38;100.00
8523;BME280;4299;42.202;24.736;2022-08-01T02:43:16;99236.97;;;20.33;100.00
8523;BME280;4299;42.202;24.736;2022-08-01T02:45:48;99249.22;;;20.27;100.00
8523;BME280;4299;42.202;24.736;2022-08-01T02:48:17;99241.06;;;20.19;100.00
8523;BME280;4299;42.202;24.736;2022-08-01T02:50:48;99230.28;;;20.19;100.00
8523;BME280;4299;42.202;24.736;2022-08-01T02:53:18;99232.00;;;20.20;100.00
8523;BME280;4299;42.202;24.736;2022-08-01T02:55:46;99232.84;;;20.20;100.00
8523;BME280;4299;42.202;24.736;2022-08-01T02:58:15;99236.22;;;20.23;100.00
8523;BME280;4299;42.202;24.736;2022-08-01T03:00:43;99236.47;;;20.29;100.00
8523;BME280;4299;42.202;24.736;2022-08-01T03:03:12;99239.81;;;20.31;100.00
8523;BME280;4299;42.202;24.736;2022-08-01T03:05:40;99239.81;;;20.31;100.00
8523;BME280;4299;42.202;24.736;2022-08-01T03:08:10;99236.13;;;20.32;100.00
8523;BME280;4299;42.202;24.736;2022-08-01T03:10:41;99238.75;;;20.24;100.00
8523;BME280;4299;42.202;24.736;2022-08-01T03:13:09;99239.06;;;20.21;100.00
8523;BME280;4299;42.202;24.736;2022-08-01T03:15:39;99229.44;;;20.18;100.00
8523;BME280;4299;42.202;24.736;2022-08-01T03:18:07;99234.81;;;20.18;100.00
8523;BME280;4299;42.202;24.736;2022-08-01T03:20:36;99240.78;;;20.22;100.00
8523;BME280;4299;42.202;24.736;2022-08-01T03:23:07;99229.06;;;20.31;100.00
8523;BME280;4299;42.202;24.736;2022-08-01T03:25:38;99232.41;;;20.43;100.00
8523;BME280;4299;42.202;24.736;2022-08-01T03:28:06;99231.28;;;20.45;100.00
8523;BME280;4299;42.202;24.736;2022-08-01T03:30:35;99232.34;;;20.52;100.00
8523;BME280;4299;42.202;24.736;2022-08-01T03:33:03;99237.47;;;20.64;99.70
8523;BME280;4299;42.202;24.736;2022-08-01T03:35:33;99229.53;;;20.80;98.85
8523;BME280;4299;42.202;24.736;2022-08-01T03:38:01;99232.94;;;20.90;97.95
8523;BME280;4299;42.202;24.736;2022-08-01T03:40:32;99231.16;;;21.16;96.64
8523;BME280;4299;42.202;24.736;2022-08-01T03:43:06;99235.66;;;21.42;94.83
8523;BME280;4299;42.202;24.736;2022-08-01T03:45:35;99238.63;;;21.64;92.99
8523;BME280;4299;42.202;24.736;2022-08-01T03:48:13;99238.19;;;21.85;90.80
8523;BME280;4299;42.202;24.736;2022-08-01T03:50:43;99234.25;;;22.05;89.42
8523;BME280;4299;42.202;24.736;2022-08-01T03:53:10;99240.34;;;22.24;87.55
8523;BME280;4299;42.202;24.736;2022-08-01T03:55:39;99233.47;;;22.53;85.62
8523;BME280;4299;42.202;24.736;2022-08-01T03:58:09;99248.69;;;22.95;81.76
8523;BME280;4299;42.202;24.736;2022-08-01T04:00:36;99249.44;;;23.44;77.30
8523;BME280;4299;42.202;24.736;2022-08-01T04:03:06;99250.47;;;23.90;72.28
8523;BME280;4299;42.202;24.736;2022-08-01T04:05:34;99253.44;;;24.34;67.54
8523;BME280;4299;42.202;24.736;2022-08-01T04:08:01;99258.88;;;24.80;63.11
8523;BME280;4299;42.202;24.736;2022-08-01T04:10:28;99258.44;;;25.29;58.60
8523;BME280;4299;42.202;24.736;2022-08-01T04:12:55;99264.47;;;25.68;55.18
8523;BME280;4299;42.202;24.736;2022-08-01T04:15:23;99256.97;;;26.00;51.67
8523;BME280;4299;42.202;24.736;2022-08-01T04:17:50;99256.91;;;26.29;49.72
8523;BME280;4299;42.202;24.736;2022-08-01T04:20:17;99260.09;;;26.54;48.24
8523;BME280;4299;42.202;24.736;2022-08-01T04:22:44;99266.66;;;26.81;46.62
8523;BME280;4299;42.202;24.736;2022-08-01T04:25:14;99269.38;;;27.02;46.09
8523;BME280;4299;42.202;24.736;2022-08-01T04:27:44;99271.06;;;27.03;45.49
8523;BME280;4299;42.202;24.736;2022-08-01T04:30:13;99268.47;;;26.95;45.34
8523;BME280;4299;42.202;24.736;2022-08-01T04:32:42;99265.34;;;26.77;45.76
8523;BME280;4299;42.202;24.736;2022-08-01T04:35:12;99265.88;;;26.44;47.05
8523;BME280;4299;42.202;24.736;2022-08-01T04:37:42;99260.25;;;25.80;50.24
8523;BME280;4299;42.202;24.736;2022-08-01T04:40:11;99265.19;;;25.33;52.08
8523;BME280;4299;42.202;24.736;2022-08-01T04:42:38;99255.03;;;24.97;53.39
8523;BME280;4299;42.202;24.736;2022-08-01T04:45:07;99260.28;;;24.76;56.54
8523;BME280;4299;42.202;24.736;2022-08-01T04:47:35;99251.91;;;24.40;58.79
8523;BME280;4299;42.202;24.736;2022-08-01T04:50:06;99252.47;;;24.27;59.67
8523;BME280;4299;42.202;24.736;2022-08-01T04:52:33;99251.22;;;24.07;63.00
8523;BME280;4299;42.202;24.736;2022-08-01T04:55:00;99256.38;;;23.94;64.43
8523;BME280;4299;42.202;24.736;2022-08-01T04:57:27;99256.25;;;23.87;64.16
8523;BME280;4299;42.202;24.736;2022-08-01T04:59:54;99253.19;;;23.82;64.62
8523;BME280;4299;42.202;24.736;2022-08-01T05:02:23;99254.38;;;23.88;65.05
8523;BME280;4299;42.202;24.736;2022-08-01T05:04:52;99258.06;;;23.95;66.00
8523;BME280;4299;42.202;24.736;2022-08-01T05:07:21;99263.25;;;24.04;64.72
8523;BME280;4299;42.202;24.736;2022-08-01T05:09:48;99257.66;;;24.06;65.00
8523;BME280;4299;42.202;24.736;2022-08-01T05:12:16;99250.03;;;24.10;63.99
8523;BME280;4299;42.202;24.736;2022-08-01T05:14:43;99262.69;;;24.17;62.53
8523;BME280;4299;42.202;24.736;2022-08-01T05:17:11;99256.59;;;24.23;62.96
8523;BME280;4299;42.202;24.736;2022-08-01T05:19:39;99264.16;;;24.28;62.57
8523;BME280;4299;42.202;24.736;2022-08-01T05:22:07;99262.34;;;24.20;63.08
8523;BME280;4299;42.202;24.736;2022-08-01T05:24:37;99278.94;;;24.17;62.94
8523;BME280;4299;42.202;24.736;2022-08-01T05:27:05;99266.03;;;24.19;63.88
8523;BME280;4299;42.202;24.736;2022-08-01T05:29:33;99256.28;;;24.10;62.68
8523;BME280;4299;42.202;24.736;2022-08-01T05:32:00;99255.56;;;24.16;63.47
8523;BME280;4299;42.202;24.736;2022-08-01T05:34:27;99261.63;;;24.26;59.96
8523;BME280;4299;42.202;24.736;2022-08-01T05:36:54;99263.31;;;24.27;59.86
8523;BME280;4299;42.202;24.736;2022-08-01T05:39:21;99254.59;;;24.09;54.48
8523;BME280;4299;42.202;24.736;2022-08-01T05:41:49;99257.97;;;24.11;54.85
8523;BME280;4299;42.202;24.736;2022-08-01T05:44:15;99255.56;;;24.16;54.53
8523;BME280;4299;42.202;24.736;2022-08-01T05:46:42;99262.25;;;24.36;55.19
8523;BME280;4299;42.202;24.736;2022-08-01T05:49:09;99264.53;;;24.48;53.52
8523;BME280;4299;42.202;24.736;2022-08-01T05:51:36;99267.19;;;24.56;51.77
8523;BME280;4299;42.202;24.736;2022-08-01T05:54:03;99260.34;;;24.68;52.65
8523;BME280;4299;42.202;24.736;2022-08-01T05:56:30;99256.94;;;24.89;50.34
8523;BME280;4299;42.202;24.736;2022-08-01T05:58:58;99255.78;;;24.91;49.93
8523;BME280;4299;42.202;24.736;2022-08-01T06:01:25;99261.84;;;24.93;49.20
8523;BME280;4299;42.202;24.736;2022-08-01T06:03:51;99257.91;;;24.96;49.10
8523;BME280;4299;42.202;24.736;2022-08-01T06:06:19;99255.97;;;25.04;48.58
8523;BME280;4299;42.202;24.736;2022-08-01T06:08:46;99262.81;;;25.15;47.51
8523;BME280;4299;42.202;24.736;2022-08-01T06:11:13;99255.72;;;25.29;49.48
8523;BME280;4299;42.202;24.736;2022-08-01T06:13:39;99256.56;;;25.44;46.21
8523;BME280;4299;42.202;24.736;2022-08-01T06:16:07;99249.00;;;25.39;46.38
8523;BME280;4299;42.202;24.736;2022-08-01T06:18:34;99259.00;;;25.39;46.04
8523;BME280;4299;42.202;24.736;2022-08-01T06:21:01;99255.00;;;25.35;42.58
8523;BME280;4299;42.202;24.736;2022-08-01T06:23:27;99254.88;;;25.43;41.77
8523;BME280;4299;42.202;24.736;2022-08-01T06:25:54;99252.03;;;25.59;41.43
8523;BME280;4299;42.202;24.736;2022-08-01T06:28:21;99250.25;;;25.66;41.01
8523;BME280;4299;42.202;24.736;2022-08-01T06:30:48;99243.31;;;25.78;39.67
8523;BME280;4299;42.202;24.736;2022-08-01T06:33:16;99246.00;;;25.93;39.20
8523;BME280;4299;42.202;24.736;2022-08-01T06:35:43;99243.09;;;25.94;38.74
8523;BME280;4299;42.202;24.736;2022-08-01T06:38:10;99233.31;;;26.15;39.18
8523;BME280;4299;42.202;24.736;2022-08-01T06:40:39;99246.75;;;26.23;37.75
8523;BME280;4299;42.202;24.736;2022-08-01T06:43:05;99238.09;;;26.13;37.47
8523;BME280;4299;42.202;24.736;2022-08-01T06:45:33;99236.59;;;26.10;37.62
8523;BME280;4299;42.202;24.736;2022-08-01T06:48:01;99232.84;;;26.26;38.78
8523;BME280;4299;42.202;24.736;2022-08-01T06:50:30;99244.13;;;26.44;38.17
8523;BME280;4299;42.202;24.736;2022-08-01T06:52:56;99240.44;;;26.52;38.11
8523;BME280;4299;42.202;24.736;2022-08-01T06:55:23;99229.63;;;26.58;37.86
8523;BME280;4299;42.202;24.736;2022-08-01T06:57:51;99228.78;;;26.58;37.44
8523;BME280;4299;42.202;24.736;2022-08-01T07:00:19;99230.38;;;26.52;37.05
8523;BME280;4299;42.202;24.736;2022-08-01T07:02:47;99230.00;;;26.55;37.52
8523;BME280;4299;42.202;24.736;2022-08-01T07:05:14;99217.31;;;26.62;38.03
8523;BME280;4299;42.202;24.736;2022-08-01T07:07:42;99225.84;;;26.81;37.20
8523;BME280;4299;42.202;24.736;2022-08-01T07:10:09;99225.19;;;26.79;36.85
8523;BME280;4299;42.202;24.736;2022-08-01T07:12:36;99220.53;;;26.72;36.94
8523;BME280;4299;42.202;24.736;2022-08-01T07:15:04;99215.72;;;26.96;37.14
8523;BME280;4299;42.202;24.736;2022-08-01T07:17:31;99213.66;;;26.98;36.37
8523;BME280;4299;42.202;24.736;2022-08-01T07:19:58;99221.25;;;27.02;35.54
8523;BME280;4299;42.202;24.736;2022-08-01T07:22:24;99216.66;;;27.03;34.84
8523;BME280;4299;42.202;24.736;2022-08-01T07:24:53;99218.00;;;27.20;34.94
8523;BME280;4299;42.202;24.736;2022-08-01T07:27:19;99214.91;;;27.23;34.17
8523;BME280;4299;42.202;24.736;2022-08-01T07:29:46;99215.94;;;27.22;34.52
8523;BME280;4299;42.202;24.736;2022-08-01T07:32:15;99212.25;;;27.36;35.01
8523;BME280;4299;42.202;24.736;2022-08-01T07:34:42;99203.84;;;27.31;34.26
8523;BME280;4299;42.202;24.736;2022-08-01T07:37:09;99203.06;;;27.37;34.25
8523;BME280;4299;42.202;24.736;2022-08-01T07:39:35;99192.50;;;27.28;34.93
8523;BME280;4299;42.202;24.736;2022-08-01T07:42:04;99191.75;;;27.40;34.72
8523;BME280;4299;42.202;24.736;2022-08-01T07:44:30;99184.22;;;27.42;34.50
8523;BME280;4299;42.202;24.736;2022-08-01T07:46:57;99189.81;;;27.34;33.90
8523;BME280;4299;42.202;24.736;2022-08-01T07:49:24;99187.59;;;27.44;33.92
8523;BME280;4299;42.202;24.736;2022-08-01T07:51:51;99191.34;;;27.43;33.30
8523;BME280;4299;42.202;24.736;2022-08-01T07:54:18;99188.78;;;27.35;33.78
8523;BME280;4299;42.202;24.736;2022-08-01T07:56:44;99186.88;;;27.64;33.97
8523;BME280;4299;42.202;24.736;2022-08-01T07:59:12;99217.44;;;27.59;34.07
8523;BME280;4299;42.202;24.736;2022-08-01T08:01:39;99190.19;;;27.53;33.69
8523;BME280;4299;42.202;24.736;2022-08-01T08:04:06;99178.50;;;27.65;33.64
8523;BME280;4299;42.202;24.736;2022-08-01T08:06:33;99197.38;;;27.67;33.99
8523;BME280;4299;42.202;24.736;2022-08-01T08:09:00;99171.66;;;27.76;33.76
8523;BME280;4299;42.202;24.736;2022-08-01T08:11:27;99171.41;;;27.71;33.43
8523;BME280;4299;42.202;24.736;2022-08-01T08:13:54;99165.13;;;27.77;34.00
8523;BME280;4299;42.202;24.736;2022-08-01T08:16:22;99171.94;;;28.07;33.09
8523;BME280;4299;42.202;24.736;2022-08-01T08:18:48;99166.84;;;27.91;33.01
8523;BME280;4299;42.202;24.736;2022-08-01T08:21:15;99162.66;;;27.88;33.45
8523;BME280;4299;42.202;24.736;2022-08-01T08:23:42;99167.28;;;27.95;33.33
8523;BME280;4299;42.202;24.736;2022-08-01T08:26:26;99179.41;;;27.85;32.88
8523;BME280;4299;42.202;24.736;2022-08-01T08:28:53;99178.94;;;27.69;33.34
8523;BME280;4299;42.202;24.736;2022-08-01T08:31:19;99178.31;;;27.67;33.80
8523;BME280;4299;42.202;24.736;2022-08-01T08:33:47;99162.53;;;27.56;35.66
8523;BME280;4299;42.202;24.736;2022-08-01T08:36:14;99168.91;;;27.76;34.79
8523;BME280;4299;42.202;24.736;2022-08-01T08:38:41;99164.03;;;27.65;34.71
8523;BME280;4299;42.202;24.736;2022-08-01T08:41:08;99180.84;;;27.75;34.78
8523;BME280;4299;42.202;24.736;2022-08-01T08:43:36;99170.53;;;27.64;35.55
8523;BME280;4299;42.202;24.736;2022-08-01T08:46:03;99164.09;;;27.78;35.25
8523;BME280;4299;42.202;24.736;2022-08-01T08:48:31;99155.13;;;27.91;34.70
8523;BME280;4299;42.202;24.736;2022-08-01T08:51:00;99147.56;;;27.86;34.92
8523;BME280;4299;42.202;24.736;2022-08-01T08:53:27;99155.53;;;27.81;34.83
8523;BME280;4299;42.202;24.736;2022-08-01T08:55:56;99149.69;;;27.97;34.89
8523;BME280;4299;42.202;24.736;2022-08-01T08:58:25;99165.19;;;27.90;35.31
8523;BME280;4299;42.202;24.736;2022-08-01T09:00:53;99144.25;;;27.97;34.43
8523;BME280;4299;42.202;24.736;2022-08-01T09:03:20;99153.47;;;27.96;34.12
8523;BME280;4299;42.202;24.736;2022-08-01T09:05:47;99152.63;;;27.96;34.09
8523;BME280;4299;42.202;24.736;2022-08-01T09:08:15;99130.81;;;27.96;34.13
8523;BME280;4299;42.202;24.736;2022-08-01T09:10:41;99143.84;;;28.13;34.10
8523;BME280;4299;42.202;24.736;2022-08-01T09:13:10;99164.00;;;28.12;34.03
8523;BME280;4299;42.202;24.736;2022-08-01T09:15:39;99156.47;;;28.27;34.10
8523;BME280;4299;42.202;24.736;2022-08-01T09:18:07;99157.31;;;28.28;34.07
8523;BME280;4299;42.202;24.736;2022-08-01T09:20:33;99163.19;;;28.18;33.95
8523;BME280;4299;42.202;24.736;2022-08-01T09:23:01;99146.56;;;28.13;34.86
8523;BME280;4299;42.202;24.736;2022-08-01T09:25:30;99150.44;;;28.39;33.67
8523;BME280;4299;42.202;24.736;2022-08-01T09:28:03;99148.94;;;28.36;33.90
8523;BME280;4299;42.202;24.736;2022-08-01T09:30:36;99127.97;;;28.50;33.33
8523;BME280;4299;42.202;24.736;2022-08-01T09:33:04;99149.78;;;28.50;33.00
8523;BME280;4299;42.202;24.736;2022-08-01T09:35:32;99139.06;;;28.28;33.54
8523;BME280;4299;42.202;24.736;2022-08-01T09:38:16;99144.34;;;28.37;33.48
8523;BME280;4299;42.202;24.736;2022-08-01T09:40:47;99150.03;;;28.55;34.19
8523;BME280;4299;42.202;24.736;2022-08-01T09:43:14;99125.47;;;28.42;33.59
8523;BME280;4299;42.202;24.736;2022-08-01T09:45:40;99109.09;;;28.61;33.35
8523;BME280;4299;42.202;24.736;2022-08-01T09:48:08;99133.47;;;28.83;33.60
8523;BME280;4299;42.202;24.736;2022-08-01T09:50:39;99135.53;;;28.87;32.66
8523;BME280;4299;42.202;24.736;2022-08-01T09:53:06;99120.00;;;28.68;33.14
8523;BME280;4299;42.202;24.736;2022-08-01T09:55:33;99125.47;;;28.81;32.64
8523;BME280;4299;42.202;24.736;2022-08-01T09:58:01;99122.13;;;28.79;32.61
8523;BME280;4299;42.202;24.736;2022-08-01T10:00:30;99124.25;;;28.77;32.59
8523;BME280;4299;42.202;24.736;2022-08-01T10:02:57;99138.91;;;28.89;33.17
8523;BME280;4299;42.202;24.736;2022-08-01T10:05:31;99128.38;;;29.13;32.69
8523;BME280;4299;42.202;24.736;2022-08-01T10:07:59;99120.41;;;28.98;32.39
8523;BME280;4299;42.202;24.736;2022-08-01T10:10:27;99103.97;;;29.18;32.71
8523;BME280;4299;42.202;24.736;2022-08-01T10:12:55;99116.53;;;29.32;32.95
8523;BME280;4299;42.202;24.736;2022-08-01T10:15:25;99101.00;;;29.39;32.18
8523;BME280;4299;42.202;24.736;2022-08-01T10:17:54;99114.00;;;29.37;31.91
8523;BME280;4299;42.202;24.736;2022-08-01T10:20:24;99111.00;;;29.58;32.74
8523;BME280;4299;42.202;24.736;2022-08-01T10:22:53;99096.56;;;29.51;31.50
8523;BME280;4299;42.202;24.736;2022-08-01T10:25:21;99104.91;;;29.56;32.00
8523;BME280;4299;42.202;24.736;2022-08-01T10:27:49;99097.56;;;29.57;32.56
8523;BME280;4299;42.202;24.736;2022-08-01T10:30:17;99110.06;;;29.77;32.75
8523;BME280;4299;42.202;24.736;2022-08-01T10:32:45;99088.94;;;29.91;32.32
8523;BME280;4299;42.202;24.736;2022-08-01T10:35:12;99099.00;;;30.04;32.20
8523;BME280;4299;42.202;24.736;2022-08-01T10:37:43;99115.91;;;29.88;32.40
8523;BME280;4299;42.202;24.736;2022-08-01T10:40:11;99099.00;;;30.04;31.38
8523;BME280;4299;42.202;24.736;2022-08-01T10:42:39;99108.75;;;29.87;31.91
8523;BME280;4299;42.202;24.736;2022-08-01T10:45:07;99096.28;;;29.59;32.40
8523;BME280;4299;42.202;24.736;2022-08-01T10:47:39;99093.28;;;29.67;31.98
8523;BME280;4299;42.202;24.736;2022-08-01T10:50:15;99099.94;;;29.85;31.84
8523;BME280;4299;42.202;24.736;2022-08-01T10:53:09;99112.47;;;29.99;31.93
8523;BME280;4299;42.202;24.736;2022-08-01T10:55:49;99087.25;;;29.97;32.09
8523;BME280;4299;42.202;24.736;2022-08-01T10:58:21;99090.00;;;29.97;31.61
8523;BME280;4299;42.202;24.736;2022-08-01T11:00:48;99088.50;;;30.01;32.19
8523;BME280;4299;42.202;24.736;2022-08-01T11:03:14;99089.19;;;30.21;31.67
8523;BME280;4299;42.202;24.736;2022-08-01T11:05:43;99102.97;;;30.33;31.45
8523;BME280;4299;42.202;24.736;2022-08-01T11:08:20;99081.22;;;30.44;31.38
8523;BME280;4299;42.202;24.736;2022-08-01T11:10:47;99100.28;;;30.58;31.68
8523;BME280;4299;42.202;24.736;2022-08-01T11:13:14;99081.94;;;30.33;31.48
8523;BME280;4299;42.202;24.736;2022-08-01T11:15:41;99080.84;;;30.16;31.82
8523;BME280;4299;42.202;24.736;2022-08-01T11:18:29;99084.50;;;30.28;31.87
8523;BME280;4299;42.202;24.736;2022-08-01T11:20:59;99081.28;;;30.63;31.17
8523;BME280;4299;42.202;24.736;2022-08-01T11:23:27;99074.53;;;30.65;31.71
8523;BME280;4299;42.202;24.736;2022-08-01T11:26:21;99067.19;;;30.84;30.44
8523;BME280;4299;42.202;24.736;2022-08-01T11:29:13;99073.75;;;31.01;30.75
8523;BME280;4299;42.202;24.736;2022-08-01T11:31:41;99070.09;;;30.89;30.64
8523;BME280;4299;42.202;24.736;2022-08-01T11:34:08;99069.63;;;30.92;30.44
8523;BME280;4299;42.202;24.736;2022-08-01T11:36:36;99068.13;;;30.96;30.84
8523;BME280;4299;42.202;24.736;2022-08-01T11:39:16;99068.25;;;31.01;30.55
8523;BME280;4299;42.202;24.736;2022-08-01T11:41:45;99071.25;;;31.36;30.32
8523;BME280;4299;42.202;24.736;2022-08-01T11:44:15;99075.28;;;31.82;30.86
8523;BME280;4299;42.202;24.736;2022-08-01T11:46:53;99072.97;;;31.67;28.70
8523;BME280;4299;42.202;24.736;2022-08-01T11:49:31;99070.25;;;31.49;28.99
8523;BME280;4299;42.202;24.736;2022-08-01T11:52:08;99065.81;;;31.96;30.31
8523;BME280;4299;42.202;24.736;2022-08-01T11:54:37;99061.50;;;32.53;29.31
8523;BME280;4299;42.202;24.736;2022-08-01T11:57:07;99054.97;;;32.42;28.55
8523;BME280;4299;42.202;24.736;2022-08-01T11:59:39;99051.94;;;32.21;28.91
8523;BME280;4299;42.202;24.736;2022-08-01T12:02:15;99055.47;;;32.09;28.71
8523;BME280;4299;42.202;24.736;2022-08-01T12:04:51;99064.50;;;31.98;28.31
8523;BME280;4299;42.202;24.736;2022-08-01T12:07:21;99049.00;;;31.92;28.85
8523;BME280;4299;42.202;24.736;2022-08-01T12:09:56;99044.31;;;32.23;29.07
8523;BME280;4299;42.202;24.736;2022-08-01T12:12:24;99045.41;;;32.45;28.73
8523;BME280;4299;42.202;24.736;2022-08-01T12:14:55;99053.66;;;32.68;29.08
8523;BME280;4299;42.202;24.736;2022-08-01T12:17:32;99052.31;;;32.47;28.28
8523;BME280;4299;42.202;24.736;2022-08-01T12:19:59;99063.06;;;32.07;28.09
8523;BME280;4299;42.202;24.736;2022-08-01T12:22:27;99058.13;;;31.86;28.74
8523;BME280;4299;42.202;24.736;2022-08-01T12:24:54;99052.59;;;32.04;28.63
8523;BME280;4299;42.202;24.736;2022-08-01T12:27:27;99048.03;;;32.63;28.01
8523;BME280;4299;42.202;24.736;2022-08-01T12:29:55;62058.31;;;-141.59;100.00
8523;BME280;4299;42.202;24.736;2022-08-01T12:32:24;62058.31;;;-141.59;100.00
8523;BME280;4299;42.202;24.736;2022-08-01T12:34:51;62058.31;;;-141.59;100.00
8523;BME280;4299;42.202;24.736;2022-08-01T12:37:19;62058.31;;;-141.59;100.00
8523;BME280;4299;42.202;24.736;2022-08-01T14:16:04;62058.31;;;-141.59;100.00
8523;BME280;4299;42.202;24.736;2022-08-01T14:18:32;99024.16;;;39.73;nan
8523;BME280;4299;42.202;24.736;2022-08-01T14:20:59;99023.84;;;40.81;nan
8523;BME280;4299;42.202;24.736;2022-08-01T14:23:26;99024.16;;;41.46;nan
8523;BME280;4299;42.202;24.736;2022-08-01T14:25:52;99026.69;;;40.76;nan
8523;BME280;4299;42.202;24.736;2022-08-01T14:28:19;99018.53;;;39.83;nan
8523;BME280;4299;42.202;24.736;2022-08-01T14:30:46;99016.94;;;39.72;nan
8523;BME280;4299;42.202;24.736;2022-08-01T14:33:13;99021.16;;;38.89;nan
8523;BME280;4299;42.202;24.736;2022-08-01T14:35:41;99032.25;;;39.00;nan
8523;BME280;4299;42.202;24.736;2022-08-01T14:38:08;99025.44;;;39.41;nan
8523;BME280;4299;42.202;24.736;2022-08-01T14:40:36;99032.75;;;40.15;nan
8523;BME280;4299;42.202;24.736;2022-08-01T14:43:03;99027.25;;;40.05;nan
8523;BME280;4299;42.202;24.736;2022-08-01T14:45:29;99028.78;;;39.38;nan
8523;BME280;4299;42.202;24.736;2022-08-01T14:47:56;99022.78;;;39.11;nan
8523;BME280;4299;42.202;24.736;2022-08-01T14:50:23;99027.44;;;39.20;nan
8523;BME280;4299;42.202;24.736;2022-08-01T14:52:53;99030.16;;;39.90;nan
8523;BME280;4299;42.202;24.736;2022-08-01T14:55:20;99035.38;;;39.52;nan